Time;durP1;ratioP1;P1;durP2;ratioP2;P2;SDS_P1;SDS_P2;PMS_P1;PMS_P2;Temp;Humidity;BMP_temperature;BMP_pressure;BME280_temperature;BME280_humidity;BME280_pressure;Samples;Min_cycle;Max_cycle;Signal;HPM_P1;HPM_P2
2022/05/30 00:00:47;;;;;;;2.10;1.73;;;;;;;8.44;84.40;97573.47;5057071;28;20208;-71
2022/05/30 00:03:13;;;;;;;4.30;2.23;;;;;;;8.41;84.95;97568.63;5057017;28;20209;-71
2022/05/30 00:05:46;;;;;;;2.27;2.07;;;;;;;7.02;85.46;97372.44;5056656;28;20568;-71
2022/05/30 00:08:12;;;;;;;5.30;2.30;;;;;;;8.23;85.82;97568.56;5056759;28;20268;-71
2022/05/30 00:10:39;;;;;;;3.73;2.40;;;;;;;8.27;85.48;97562.63;5056563;28;20660;-70
2022/05/30 00:13:06;;;;;;;2.40;2.20;;;;;;;8.27;86.71;97553.84;5056830;28;20209;-71
2022/05/30 00:15:32;;;;;;;4.83;2.30;;;;;;;8.27;86.77;97557.31;5056457;28;20209;-71
2022/05/30 00:17:59;;;;;;;2.53;2.30;;;;;;;8.26;87.10;97557.53;5056674;28;20267;-71
2022/05/30 00:20:26;;;;;;;4.17;2.33;;;;;;;8.22;86.22;97559.00;5056692;28;20205;-71
2022/05/30 00:22:53;;;;;;;2.27;1.87;;;;;;;8.24;86.96;97552.44;5056660;28;20208;-70
2022/05/30 00:25:19;;;;;;;3.03;2.43;;;;;;;8.19;86.67;97554.13;5056573;28;20204;-71
2022/05/30 00:27:46;;;;;;;3.57;2.00;;;;;;;8.07;87.28;97554.00;5056442;28;20233;-71
2022/05/30 00:30:15;;;;;;;4.03;2.23;;;;;;;7.98;88.68;97543.88;5056539;28;20209;-71
2022/05/30 00:32:41;;;;;;;1.80;1.70;;;;;;;7.95;88.29;97544.28;5056487;28;20208;-71
2022/05/30 00:35:08;;;;;;;2.10;1.90;;;;;;;8.08;88.40;97538.91;5056125;28;20217;-71
2022/05/30 00:37:35;;;;;;;4.63;2.10;;;;;;;8.02;88.03;97535.31;5055992;28;20730;-71
2022/05/30 00:40:01;;;;;;;3.33;2.10;;;;;;;7.98;88.04;97538.59;5056877;28;20209;-71
2022/05/30 00:42:28;;;;;;;3.33;2.30;;;;;;;7.96;88.23;97538.00;5055877;28;20235;-71
2022/05/30 00:44:55;;;;;;;2.83;2.40;;;;;;;8.05;87.99;97534.06;5055966;28;20735;-71
2022/05/30 00:47:25;;;;;;;2.47;2.07;;;;;;;7.97;89.31;97535.13;5055988;28;20333;-71
2022/05/30 00:49:52;;;;;;;3.17;2.10;;;;;;;8.04;88.93;97532.41;5056243;28;20198;-71
2022/05/30 00:52:44;;;;;;;2.57;2.33;;;;;;;8.04;89.20;97530.59;5056094;28;20201;-71
2022/05/30 00:55:15;;;;;;;2.60;2.27;;;;;;;7.90;89.42;97530.91;5049172;28;20231;-71
2022/05/30 00:57:43;;;;;;;2.90;2.60;;;;;;;7.73;90.45;97527.13;5054668;28;20223;-71
2022/05/30 01:00:21;;;;;;;3.00;2.33;;;;;;;7.84;89.91;97537.06;5055666;28;20216;-71
2022/05/30 01:06:30;;;;;;;2.73;2.27;;;;;;;7.83;89.89;97524.84;5055648;28;20663;-70
2022/05/30 01:08:25;;;;;;;3.43;2.33;;;;;;;7.95;90.11;97520.47;5055278;28;20251;-71
2022/05/30 01:10:51;;;;;;;4.60;2.73;;;;;;;7.92;90.02;97513.78;5055708;28;20201;-71
2022/05/30 01:13:17;;;;;;;4.57;2.30;;;;;;;7.90;90.22;97509.72;5055722;28;20220;-71
2022/05/30 01:15:44;;;;;;;4.57;2.53;;;;;;;7.92;90.66;97502.41;5055627;28;20575;-71
2022/05/30 01:18:23;;;;;;;4.07;2.60;;;;;;;7.92;90.33;97503.19;5055557;28;20225;-71
2022/05/30 01:21:24;;;;;;;3.40;2.20;;;;;;;7.91;90.25;97498.09;5055637;28;20186;-71
2022/05/30 01:24:15;;;;;;;4.30;2.87;;;;;;;7.90;90.90;97486.72;5054412;28;20185;-71
2022/05/30 01:27:02;;;;;;;2.93;2.63;;;;;;;7.90;91.01;97484.09;5055965;28;20190;-71
2022/05/30 01:29:33;;;;;;;6.63;2.67;;;;;;;7.91;91.79;97484.88;5055367;28;20247;-71
2022/05/30 01:31:59;;;;;;;5.27;2.97;;;;;;;7.88;91.45;97478.19;5055422;28;20198;-71
2022/05/30 01:34:27;;;;;;;3.93;2.57;;;;;;;7.90;91.38;97485.91;5055324;28;20210;-71
2022/05/30 01:36:54;;;;;;;4.63;3.03;;;;;;;7.97;91.32;97474.25;5055305;28;20205;-71
2022/05/30 01:39:21;;;;;;;3.17;2.67;;;;;;;7.99;91.91;97479.31;5055157;28;20221;-70
2022/05/30 01:41:47;;;;;;;3.57;2.37;;;;;;;7.88;90.75;97478.19;5055222;28;20231;-71
2022/05/30 01:44:14;;;;;;;2.83;2.57;;;;;;;7.89;90.96;97473.72;5055151;28;20212;-71
2022/05/30 01:46:41;;;;;;;5.07;2.70;;;;;;;7.73;91.76;97469.75;5054691;28;20258;-70
2022/05/30 01:49:08;;;;;;;4.37;2.63;;;;;;;7.55;92.78;97467.03;5054585;28;20237;-71
2022/05/30 01:51:35;;;;;;;5.60;2.50;;;;;;;7.65;92.37;97469.22;5055009;28;20212;-71
2022/05/30 01:54:01;;;;;;;3.23;2.37;;;;;;;7.75;91.90;97464.25;5055759;28;20215;-71
2022/05/30 01:56:28;;;;;;;3.07;2.70;;;;;;;7.64;91.89;97464.97;5055448;28;20205;-71
2022/05/30 01:58:54;;;;;;;3.93;3.17;;;;;;;7.60;92.18;97459.28;5054727;28;20218;-71
2022/05/30 02:01:24;;;;;;;8.43;2.90;;;;;;;7.60;93.21;97466.41;5054403;28;20220;-71
2022/05/30 02:03:52;;;;;;;3.90;2.80;;;;;;;7.51;92.29;97457.91;5054716;28;20241;-71
2022/05/30 02:06:20;;;;;;;2.90;2.57;;;;;;;7.42;92.94;97463.69;5054696;28;20201;-70
2022/05/30 02:08:48;;;;;;;3.70;2.60;;;;;;;7.30;92.74;97468.03;5054121;28;20303;-71
2022/05/30 02:11:16;;;;;;;3.50;2.70;;;;;;;7.34;93.40;97461.28;5054374;28;20608;-71
2022/05/30 02:13:43;;;;;;;3.47;2.70;;;;;;;7.38;93.45;97458.00;5054597;28;20292;-71
2022/05/30 02:18:56;;;;;;;3.27;2.87;;;;;;;7.49;93.11;97461.78;5054267;28;20208;-70
2022/05/30 02:21:22;;;;;;;2.77;2.43;;;;;;;7.54;92.17;97467.25;5054452;28;20209;-71
2022/05/30 02:23:49;;;;;;;3.90;2.87;;;;;;;7.50;92.12;97456.28;5054412;28;20209;-71
2022/05/30 02:26:15;;;;;;;3.30;3.00;;;;;;;7.40;92.44;97461.25;5054085;28;20688;-71
2022/05/30 02:28:42;;;;;;;4.63;2.80;;;;;;;7.35;92.69;97463.72;5054169;28;20229;-71
2022/05/30 02:31:08;;;;;;;3.50;2.70;;;;;;;7.37;92.92;97460.88;5054229;28;20209;-71
2022/05/30 02:39:03;;;;;;;4.40;2.77;;;;;;;7.31;92.81;97467.81;5054186;28;20686;-70
2022/05/30 02:41:30;;;;;;;2.90;2.47;;;;;;;7.24;93.04;97472.31;5054076;28;20212;-71
2022/05/30 02:43:56;;;;;;;4.67;2.70;;;;;;;7.10;93.06;97469.97;5053895;28;20216;-71
2022/05/30 02:46:23;;;;;;;5.47;2.87;;;;;;;7.11;92.88;97474.22;5054007;28;20216;-70
2022/05/30 02:48:49;;;;;;;4.20;2.40;;;;;;;7.15;91.02;97475.44;5053492;28;20245;-70
2022/05/30 02:51:16;;;;;;;2.57;2.37;;;;;;;7.11;90.92;97477.66;5053564;28;20217;-71
2022/05/30 02:53:42;;;;;;;2.53;2.33;;;;;;;7.02;91.76;97478.13;5053516;28;20683;-71
2022/05/30 02:56:13;;;;;;;3.10;2.47;;;;;;;7.13;91.06;97474.81;5053867;28;20308;-70
2022/05/30 02:58:39;;;;;;;3.87;2.43;;;;;;;6.92;89.65;97478.56;5053710;28;20254;-70
2022/05/30 03:01:05;;;;;;;3.87;2.60;;;;;;;7.04;89.16;97476.09;5053328;28;20665;-70
2022/05/30 03:03:32;;;;;;;5.17;2.30;;;;;;;7.04;89.50;97486.66;5053626;28;20205;-70
2022/05/30 03:05:59;;;;;;;3.83;2.37;;;;;;;7.17;89.80;97483.94;5053240;28;20205;-71
2022/05/30 03:08:25;;;;;;;3.60;2.53;;;;;;;7.11;89.86;97495.38;5053106;28;20700;-71
2022/05/30 03:10:51;;;;;;;5.47;2.23;;;;;;;6.93;90.52;97498.69;5053202;28;20574;-71
2022/05/30 03:13:18;;;;;;;3.90;2.53;;;;;;;6.87;91.25;97496.09;5052990;28;20625;-71
2022/05/30 03:15:44;;;;;;;2.40;2.20;;;;;;;6.91;90.91;97497.28;5053038;28;20683;-70
2022/05/30 03:18:11;;;;;;;3.00;2.50;;;;;;;6.99;90.16;97489.13;5053029;28;20228;-70
2022/05/30 03:20:38;;;;;;;3.00;1.87;;;;;;;7.02;90.53;97499.28;5052536;28;20209;-71
2022/05/30 03:23:05;;;;;;;4.77;2.23;;;;;;;7.05;90.14;97504.94;5052971;28;20209;-71
2022/05/30 03:25:31;;;;;;;3.53;2.40;;;;;;;7.04;89.52;97503.34;5053278;28;20213;-71
2022/05/30 03:27:58;;;;;;;3.73;2.60;;;;;;;6.95;89.32;97501.13;5053130;28;20237;-71
2022/05/30 03:30:25;;;;;;;3.73;2.10;;;;;;;6.83;89.71;97503.59;5053187;28;20216;-71
2022/05/30 03:32:51;;;;;;;5.03;2.60;;;;;;;6.71;90.77;97507.94;5053127;28;20201;-71
2022/05/30 03:35:18;;;;;;;4.40;2.30;;;;;;;6.73;90.73;97512.97;5053124;28;20213;-70
2022/05/30 03:37:46;;;;;;;4.07;2.43;;;;;;;6.76;91.03;97509.94;5053129;28;20225;-70
2022/05/30 03:40:16;;;;;;;4.17;2.50;;;;;;;6.78;90.83;97511.34;5052871;28;20682;-71
2022/05/30 03:42:43;;;;;;;2.60;2.40;;;;;;;6.92;91.36;97510.28;5053011;28;20193;-71
2022/05/30 03:45:10;;;;;;;2.63;2.40;;;;;;;6.88;91.02;97508.28;5052678;28;20555;-71
2022/05/30 03:47:41;;;;;;;6.20;3.00;;;;;;;6.85;91.81;97514.78;5052774;28;20240;-71
2022/05/30 03:50:09;;;;;;;2.73;2.53;;;;;;;6.88;91.86;97510.91;5052819;28;20209;-70
2022/05/30 03:52:36;;;;;;;4.47;2.87;;;;;;;6.92;92.27;97510.28;5053153;28;20212;-70
2022/05/30 03:55:08;;;;;;;4.20;3.10;;;;;;;6.94;92.44;97507.44;5053093;28;20208;-71
2022/05/30 03:57:35;;;;;;;5.00;3.10;;;;;;;6.96;93.01;97511.50;5053456;28;20232;-71
2022/05/30 04:00:01;;;;;;;3.47;2.93;;;;;;;7.03;92.63;97514.09;5053000;28;20212;-71
2022/05/30 04:02:28;;;;;;;4.27;3.10;;;;;;;6.91;93.12;97519.22;5052577;28;20629;-70
2022/05/30 04:04:55;;;;;;;6.20;3.43;;;;;;;6.97;93.48;97518.38;5052760;28;20216;-71
2022/05/30 04:07:22;;;;;;;4.93;3.20;;;;;;;6.96;94.15;97518.59;5053194;28;20209;-71
2022/05/30 04:09:48;;;;;;;3.37;2.90;;;;;;;6.99;93.08;97516.38;5052773;28;20212;-71
2022/05/30 04:12:15;;;;;;;4.50;2.80;;;;;;;6.91;93.35;97518.41;5053450;28;20205;-71
2022/05/30 04:14:41;;;;;;;4.53;2.90;;;;;;;7.04;93.79;97526.28;5052518;28;20293;-71
2022/05/30 04:17:07;;;;;;;3.43;2.87;;;;;;;6.99;94.11;97518.19;5052533;28;20209;-71
2022/05/30 04:19:34;;;;;;;5.83;3.20;;;;;;;7.15;93.45;97523.81;5052813;28;20288;-71
2022/05/30 04:22:01;;;;;;;4.00;3.17;;;;;;;7.17;93.29;97526.25;5052701;28;20201;-71
2022/05/30 04:24:28;;;;;;;4.30;3.27;;;;;;;7.24;92.52;97529.69;5052193;28;20209;-71
2022/05/30 04:26:55;;;;;;;5.73;3.03;;;;;;;7.22;91.88;97526.41;5052241;28;20213;-71
2022/05/30 04:29:22;;;;;;;6.10;3.37;;;;;;;7.22;92.04;97515.84;5052131;28;20225;-71
2022/05/30 04:31:48;;;;;;;4.40;3.20;;;;;;;7.29;92.21;97517.44;5053899;28;20212;-71
2022/05/30 04:34:14;;;;;;;3.97;3.10;;;;;;;7.36;91.80;97520.03;5056320;28;20205;-71
2022/05/30 04:36:41;;;;;;;4.33;3.30;;;;;;;7.43;91.48;97523.47;5056123;28;20211;-71
2022/05/30 04:39:07;;;;;;;5.47;3.40;;;;;;;7.47;91.79;97519.38;5055902;28;20222;-71
2022/05/30 04:41:33;;;;;;;4.57;3.23;;;;;;;7.52;90.80;97517.72;5056077;28;20210;-71
2022/05/30 04:44:01;;;;;;;4.47;3.50;;;;;;;7.54;91.63;97518.31;5055953;28;20213;-71
2022/05/30 04:46:27;;;;;;;4.97;3.57;;;;;;;7.65;92.07;97522.91;5055188;28;20330;-71
2022/05/30 04:48:54;;;;;;;5.60;3.77;;;;;;;7.73;91.75;97525.31;5054718;28;20236;-71
2022/05/30 04:51:20;;;;;;;4.67;3.30;;;;;;;7.79;91.44;97521.81;5055562;28;20201;-71
2022/05/30 04:53:46;;;;;;;5.93;3.50;;;;;;;7.83;90.54;97524.84;5055862;28;20202;-71
2022/05/30 04:56:13;;;;;;;4.90;3.27;;;;;;;7.94;90.12;97526.81;5055528;28;20220;-71
2022/05/30 04:58:39;;;;;;;4.37;3.03;;;;;;;8.03;89.39;97526.34;5056187;28;20225;-71
2022/05/30 05:01:09;;;;;;;5.53;3.53;;;;;;;8.34;87.42;97518.38;5055487;28;20206;-71
2022/05/30 05:03:38;;;;;;;7.47;3.90;;;;;;;8.78;85.96;97531.34;5055661;28;20190;-71
2022/05/30 05:06:07;;;;;;;5.50;3.40;;;;;;;9.21;84.31;97536.56;5055177;28;20660;-71
2022/05/30 05:09:04;;;;;;;5.77;3.50;;;;;;;9.37;80.58;97531.47;5054812;28;20229;-70
2022/05/30 05:11:33;;;;;;;3.73;3.30;;;;;;;9.31;81.69;97537.69;5029987;28;20304;-71
2022/05/30 05:14:00;;;;;;;3.67;3.13;;;;;;;9.29;82.12;97538.94;5055004;28;20588;-71
2022/05/30 05:16:29;;;;;;;3.83;2.93;;;;;;;9.86;79.22;97531.19;5053948;28;20220;-71
2022/05/30 05:18:56;;;;;;;3.97;3.03;;;;;;;10.17;77.67;97530.13;5054572;28;20591;-71
2022/05/30 05:21:31;;;;;;;5.60;3.33;;;;;;;10.74;73.99;97529.34;5054801;28;20205;-70
2022/05/30 05:23:58;;;;;;;5.07;3.17;;;;;;;10.57;74.21;97534.56;5055036;28;20185;-71
2022/05/30 05:26:26;;;;;;;6.73;3.33;;;;;;;10.76;74.72;97540.56;5054415;28;20288;-71
2022/05/30 05:28:53;;;;;;;5.33;3.27;;;;;;;10.54;75.10;97547.53;5053901;28;20645;-71
2022/05/30 05:31:25;;;;;;;3.30;3.00;;;;;;;10.16;76.83;97552.44;5054695;28;20231;-71
2022/05/30 05:33:54;;;;;;;5.07;3.40;;;;;;;9.95;77.37;97558.22;5054387;28;20209;-71
2022/05/30 05:36:33;;;;;;;4.93;3.83;;;;;;;10.01;77.12;97560.78;5054840;28;20205;-71
2022/05/30 05:39:00;;;;;;;5.43;3.63;;;;;;;10.13;76.95;97566.97;5054442;28;20235;-71
2022/05/30 05:41:26;;;;;;;5.43;3.70;;;;;;;9.95;78.50;97564.34;5054477;28;20212;-71
2022/05/30 05:43:54;;;;;;;5.30;3.40;;;;;;;9.94;76.58;97569.88;5053481;28;20209;-71
2022/05/30 05:46:25;;;;;;;4.23;3.60;;;;;;;9.87;78.56;97574.50;5054564;28;20215;-71
2022/05/30 05:48:52;;;;;;;4.97;3.57;;;;;;;9.94;77.68;97565.41;5054444;28;20237;-71
2022/05/30 05:51:19;;;;;;;6.00;4.10;;;;;;;10.01;77.70;97573.28;5054149;28;20206;-71
2022/05/30 05:53:46;;;;;;;7.23;3.30;;;;;;;10.25;75.82;97577.63;5054286;28;20205;-70
2022/05/30 05:56:16;;;;;;;4.87;3.90;;;;;;;10.18;76.23;97571.63;5053746;28;20211;-71
2022/05/30 05:58:42;;;;;;;4.87;3.77;;;;;;;10.14;77.45;97576.56;5054019;28;20224;-70
2022/05/30 06:01:11;;;;;;;6.30;3.73;;;;;;;10.15;77.47;97572.06;5054180;28;20209;-70
2022/05/30 06:03:37;;;;;;;4.90;3.97;;;;;;;10.10;77.81;97569.28;5054176;28;20201;-70
2022/05/30 06:06:05;;;;;;;3.73;3.43;;;;;;;10.29;77.70;97568.16;5054351;28;20205;-70
2022/05/30 06:08:32;;;;;;;4.20;3.80;;;;;;;10.19;76.85;97565.25;5054042;28;20229;-71
2022/05/30 06:11:09;;;;;;;4.47;3.77;;;;;;;10.23;77.15;97574.41;5053571;28;20545;-70
2022/05/30 06:13:37;;;;;;;8.20;4.00;;;;;;;10.52;75.96;97569.00;5054219;28;20189;-70
2022/05/30 06:16:13;;;;;;;4.93;3.43;;;;;;;10.53;78.02;97570.63;5054648;28;20202;-70
2022/05/30 06:18:39;;;;;;;7.70;4.40;;;;;;;10.53;75.83;97572.47;5053683;28;20229;-71
2022/05/30 06:21:06;;;;;;;6.60;3.80;;;;;;;10.86;75.91;97568.19;5053597;28;20213;-71
2022/05/30 06:23:33;;;;;;;4.37;3.97;;;;;;;10.89;75.54;97565.06;5053482;28;20205;-71
2022/05/30 06:26:01;;;;;;;6.50;4.50;;;;;;;11.00;75.86;97566.09;5053493;28;20205;-70
2022/05/30 06:28:29;;;;;;;8.50;4.03;;;;;;;11.09;73.26;97570.03;5053092;28;20684;-70
2022/05/30 06:30:56;;;;;;;6.37;3.83;;;;;;;10.93;73.54;97570.72;5053378;28;20205;-71
2022/05/30 06:33:22;;;;;;;4.23;3.83;;;;;;;10.94;72.67;97559.03;5053349;28;20212;-68
2022/05/30 06:35:49;;;;;;;4.30;3.27;;;;;;;11.01;75.65;97567.72;5053235;28;20672;-71
2022/05/30 06:38:16;;;;;;;3.50;3.20;;;;;;;11.36;75.15;97573.78;5053995;28;20696;-71
2022/05/30 06:40:43;;;;;;;5.10;3.23;;;;;;;11.22;73.57;97583.09;5053575;28;20236;-70
2022/05/30 06:43:10;;;;;;;5.80;3.50;;;;;;;11.42;74.43;97582.66;5053551;28;20218;-71
2022/05/30 06:45:36;;;;;;;3.43;3.23;;;;;;;11.61;72.27;97584.97;5053770;28;20212;-71
2022/05/30 06:48:03;;;;;;;4.23;3.53;;;;;;;11.33;74.57;97584.91;5052873;28;20237;-71
2022/05/30 06:50:30;;;;;;;5.73;3.60;;;;;;;11.37;73.39;97587.88;5053433;28;20201;-71
2022/05/30 06:52:56;;;;;;;5.17;3.30;;;;;;;11.14;74.37;97589.56;5053394;28;20249;-71
2022/05/30 06:55:23;;;;;;;4.17;3.57;;;;;;;11.31;74.35;97594.16;5053621;28;20209;-71
2022/05/30 07:00:33;;;;;;;4.37;3.87;;;;;;;11.41;74.14;97600.50;5053212;28;20172;-71
2022/05/30 07:03:00;;;;;;;4.30;3.23;;;;;;;11.18;72.72;97604.00;5052883;28;20206;-71
2022/05/30 07:05:26;;;;;;;4.00;3.60;;;;;;;11.36;73.96;97603.06;5052762;28;20660;-71
2022/05/30 07:07:56;;;;;;;5.87;3.40;;;;;;;11.76;72.27;97606.56;5053152;28;20233;-71
2022/05/30 07:10:23;;;;;;;6.13;3.63;;;;;;;11.55;71.95;97604.53;5052822;28;20610;-71
2022/05/30 07:12:49;;;;;;;8.17;3.97;;;;;;;11.68;72.67;97606.94;5053050;28;20201;-71
2022/05/30 07:15:16;;;;;;;3.90;3.50;;;;;;;11.83;71.36;97604.56;5053103;28;20209;-71
2022/05/30 07:17:42;;;;;;;4.63;3.37;;;;;;;11.80;69.41;97604.25;5052927;28;20221;-71
2022/05/30 07:20:09;;;;;;;4.67;3.30;;;;;;;11.78;69.79;97609.81;5052971;28;20275;-71
2022/05/30 07:22:35;;;;;;;6.20;3.43;;;;;;;11.07;72.03;97606.69;5052786;28;20220;-71
2022/05/30 07:25:02;;;;;;;5.70;3.17;;;;;;;11.57;72.89;97609.63;5052860;28;20212;-71
2022/05/30 07:27:28;;;;;;;7.63;3.87;;;;;;;11.84;70.80;97613.38;5052666;28;20205;-70
2022/05/30 07:29:54;;;;;;;3.50;3.13;;;;;;;12.16;67.16;97609.19;5052824;28;20225;-71
2022/05/30 07:32:21;;;;;;;4.27;3.10;;;;;;;12.32;67.29;97611.88;5052810;28;20205;-71
2022/05/30 07:34:47;;;;;;;4.47;2.80;;;;;;;12.38;64.61;97613.56;5052951;28;20288;-71
2022/05/30 07:37:14;;;;;;;6.67;3.77;;;;;;;11.79;66.54;97607.94;5052446;28;20216;-70
2022/05/30 07:39:40;;;;;;;5.30;3.70;;;;;;;11.79;68.17;97603.44;5052561;28;20314;-71
2022/05/30 07:42:10;;;;;;;4.03;2.70;;;;;;;12.17;65.39;97613.47;5052627;28;20572;-71
2022/05/30 07:44:36;;;;;;;6.27;2.63;;;;;;;12.49;66.25;97604.72;5053004;28;20209;-71
2022/05/30 07:47:03;;;;;;;6.40;2.83;;;;;;;12.64;63.69;97606.81;5052646;28;20213;-72
2022/05/30 07:49:29;;;;;;;3.00;2.53;;;;;;;12.77;63.41;97607.28;5052211;28;20226;-71
2022/05/30 07:51:56;;;;;;;4.17;2.70;;;;;;;12.54;63.01;97612.78;5052728;28;20210;-71
2022/05/30 07:54:23;;;;;;;4.57;2.60;;;;;;;12.70;63.96;97603.19;5053361;28;20211;-71
2022/05/30 07:56:49;;;;;;;4.73;2.60;;;;;;;13.10;63.06;97604.63;5052771;28;20235;-71
2022/05/30 07:59:16;;;;;;;3.97;2.20;;;;;;;13.34;60.94;97608.69;5052811;28;20219;-71
2022/05/30 08:01:43;;;;;;;4.03;2.40;;;;;;;12.24;62.23;97614.09;5052641;28;20206;-70
2022/05/30 08:04:13;;;;;;;3.20;2.30;;;;;;;12.60;62.56;97606.47;5052894;28;20211;-71
2022/05/30 08:06:40;;;;;;;2.97;2.23;;;;;;;13.14;61.94;97602.25;5053894;28;20200;-71
2022/05/30 08:09:07;;;;;;;3.93;2.07;;;;;;;13.43;59.65;97607.19;5056501;28;20321;-71
2022/05/30 08:11:33;;;;;;;4.47;2.07;;;;;;;13.62;56.31;97602.38;5066218;28;20201;-71
2022/05/30 08:14:00;;;;;;;4.97;2.50;;;;;;;12.87;59.08;97607.44;5076425;28;20206;-71
2022/05/30 08:16:28;;;;;;;2.13;1.90;;;;;;;13.03;59.17;97605.84;5076263;28;20549;-71
2022/05/30 08:18:54;;;;;;;3.17;2.13;;;;;;;13.45;61.11;97602.44;5076486;28;20226;-71
2022/05/30 08:21:20;;;;;;;6.30;2.10;;;;;;;13.56;61.06;97606.03;5076501;28;20613;-71
2022/05/30 08:23:47;;;;;;;4.07;1.73;;;;;;;13.91;58.19;97607.25;5076510;28;20206;-71
2022/05/30 08:26:14;;;;;;;5.57;2.00;;;;;;;14.16;53.78;97606.72;5075918;28;20610;-71
2022/05/30 08:28:41;;;;;;;4.67;2.20;;;;;;;13.80;54.60;97607.41;5076072;28;20231;-72
2022/05/30 08:31:08;;;;;;;4.87;1.70;;;;;;;13.99;53.61;97609.50;5075605;28;20218;-71
2022/05/30 08:33:35;;;;;;;2.23;1.40;;;;;;;14.28;51.56;97610.88;5075957;28;20203;-71
2022/05/30 08:36:08;;;;;;;3.10;1.73;;;;;;;14.35;50.21;97611.50;5076127;28;20215;-71
2022/05/30 08:38:37;;;;;;;2.90;1.83;;;;;;;13.38;51.97;97604.47;5076111;28;20276;-71
2022/05/30 08:43:57;;;;;;;3.03;1.90;;;;;;;14.49;50.50;97614.56;5075977;28;20176;-70
2022/05/30 08:46:34;;;;;;;3.13;1.80;;;;;;;14.33;51.72;97602.91;5076058;28;20199;-71
2022/05/30 08:49:20;;;;;;;2.03;1.80;;;;;;;14.51;49.49;97596.41;5075486;28;20239;-70
2022/05/30 08:51:54;;;;;;;2.00;1.63;;;;;;;14.05;47.87;97607.66;5075742;28;20196;-70
2022/05/30 08:55:02;;;;;;;2.70;1.30;;;;;;;14.06;49.04;97607.41;5075825;28;20197;-70
2022/05/30 08:57:59;;;;;;;2.20;1.30;;;;;;;14.45;49.60;97597.38;5075674;28;20301;-71
2022/05/30 09:00:34;;;;;;;1.77;1.37;;;;;;;14.69;47.70;97602.16;5075601;28;20184;-71
2022/05/30 09:03:26;;;;;;;2.43;1.53;;;;;;;14.98;46.91;97597.28;5075580;28;20188;-71
2022/05/30 09:06:02;;;;;;;4.30;1.77;;;;;;;14.98;47.59;97594.59;5075481;28;20211;-70
2022/05/30 09:08:34;;;;;;;3.03;1.50;;;;;;;15.15;45.52;97598.72;5075282;28;20231;-71
2022/05/30 09:11:07;;;;;;;5.37;1.50;;;;;;;14.93;43.37;97592.69;5075484;28;20276;-71
2022/05/30 09:13:41;;;;;;;1.90;1.03;;;;;;;14.81;45.31;97597.44;5075322;28;20196;-71
2022/05/30 09:16:29;;;;;;;5.33;1.20;;;;;;;15.20;43.63;97604.09;5075514;28;20193;-71
2022/05/30 09:18:57;;;;;;;2.00;1.30;;;;;;;15.42;45.71;97596.75;5074189;28;20220;-70
2022/05/30 09:21:26;;;;;;;2.33;1.67;;;;;;;15.59;43.80;97594.72;5075032;28;20212;-70
2022/05/30 09:23:52;;;;;;;4.13;1.10;;;;;;;15.64;39.74;97601.94;5074976;28;20671;-71
2022/05/30 09:26:33;;;;;;;4.20;1.20;;;;;;;14.55;39.92;97594.78;5074845;28;20205;-70
2022/05/30 09:29:09;;;;;;;1.53;1.03;;;;;;;15.21;41.95;97592.34;5075302;28;20224;-70
2022/05/30 09:32:04;;;;;;;3.97;1.20;;;;;;;15.77;43.21;97588.88;5075646;28;20184;-70
2022/05/30 09:34:49;;;;;;;4.03;1.33;;;;;;;15.76;40.53;97592.66;5074894;28;20204;-71
2022/05/30 09:37:35;;;;;;;1.87;1.10;;;;;;;14.85;40.03;97595.03;5074399;28;20644;-71
2022/05/30 09:40:02;;;;;;;4.83;1.17;;;;;;;15.62;41.01;97591.53;5074815;28;20192;-71
2022/05/30 09:42:32;;;;;;;2.00;1.13;;;;;;;16.01;41.48;97598.06;5074262;28;20216;-71
2022/05/30 09:45:10;;;;;;;2.83;1.20;;;;;;;16.08;38.27;97603.19;5074757;28;20204;-69
2022/05/30 09:47:36;;;;;;;3.07;1.20;;;;;;;15.78;39.23;97606.56;5074400;28;20234;-68
2022/05/30 09:50:21;;;;;;;3.63;1.17;;;;;;;14.76;41.34;97601.94;5074649;28;20208;-68
2022/05/30 09:52:48;;;;;;;4.03;1.33;;;;;;;15.02;45.23;97601.06;5074216;28;20233;-69
2022/05/30 09:55:28;;;;;;;2.00;1.33;;;;;;;15.50;41.72;97604.31;5074552;28;20204;-69
2022/05/30 09:57:55;;;;;;;4.20;1.50;;;;;;;15.54;42.91;97594.69;5074498;28;20224;-69
2022/05/30 10:00:54;;;;;;;2.87;1.27;;;;;;;14.95;42.26;97600.47;5073751;28;20596;-69
2022/05/30 10:03:33;;;;;;;2.07;1.30;;;;;;;15.06;43.61;97597.59;5068499;28;20211;-68
2022/05/30 10:06:19;;;;;;;1.47;1.10;;;;;;;15.14;42.46;97597.13;5074207;28;20192;-69
2022/05/30 10:08:47;;;;;;;2.80;1.10;;;;;;;14.84;40.66;97599.56;5073951;28;20216;-68
2022/05/30 10:11:32;;;;;;;2.77;1.40;;;;;;;15.40;40.25;97603.44;5073952;28;20290;-68
2022/05/30 10:13:59;;;;;;;2.97;1.13;;;;;;;16.14;41.98;97597.56;5074442;28;20199;-69
2022/05/30 10:16:36;;;;;;;3.40;1.13;;;;;;;16.38;36.80;97604.03;5074006;28;20283;-69
2022/05/30 10:19:09;;;;;;;2.57;0.90;;;;;;;16.10;37.60;97595.69;5074172;28;20274;-69
2022/05/30 10:31:00;;;;;;;1.93;0.90;;;;;;;16.01;37.94;97606.13;5073167;28;20239;-69
2022/05/30 10:33:29;;;;;;;2.70;1.00;;;;;;;15.82;35.92;97606.84;5055757;28;20343;-69
2022/05/30 10:36:03;;;;;;;1.30;1.03;;;;;;;15.63;37.51;97605.69;5073635;28;20208;-69
2022/05/30 10:38:38;;;;;;;2.60;1.10;;;;;;;15.30;37.59;97595.34;5073530;28;20311;-68
2022/05/30 10:41:21;;;;;;;1.43;0.90;;;;;;;15.27;38.74;97598.53;5073637;28;20191;-69
2022/05/30 10:44:02;;;;;;;2.27;0.90;;;;;;;15.32;37.48;97598.53;5073126;28;20200;-69
2022/05/30 10:46:42;;;;;;;2.03;0.90;;;;;;;15.61;36.11;97605.19;5073728;28;20570;-68
2022/05/30 10:49:14;;;;;;;2.73;1.67;;;;;;;15.48;37.10;97605.66;5073212;28;20236;-69
2022/05/30 10:51:49;;;;;;;1.67;1.07;;;;;;;15.41;37.57;97599.69;5073341;28;20189;-69
2022/05/30 10:54:28;;;;;;;1.87;1.10;;;;;;;15.42;38.92;97601.34;5073079;28;20662;-69
2022/05/30 10:57:06;;;;;;;2.53;1.07;;;;;;;15.55;38.74;97612.38;5073461;28;20189;-69
2022/05/30 10:59:43;;;;;;;1.87;1.47;;;;;;;16.01;36.82;97606.13;5073390;28;20251;-69
2022/05/30 11:02:18;;;;;;;2.33;1.10;;;;;;;16.63;35.06;97603.28;5055253;28;20636;-69
2022/05/30 11:05:00;;;;;;;1.03;0.90;;;;;;;16.75;34.84;97606.53;5073017;28;20188;-69
2022/05/30 11:07:45;;;;;;;2.00;1.10;;;;;;;16.21;34.91;97603.50;5073014;28;20199;-68
2022/05/30 11:10:21;;;;;;;3.33;1.07;;;;;;;16.63;35.19;97608.66;5072454;28;20683;-68
2022/05/30 11:12:54;;;;;;;2.33;1.10;;;;;;;16.92;35.93;97610.53;5072609;28;20188;-69
2022/05/30 11:15:37;;;;;;;2.43;1.17;;;;;;;16.69;35.52;97608.41;5073232;28;20193;-69
2022/05/30 11:18:09;;;;;;;1.43;1.33;;;;;;;16.26;35.83;97610.72;5054989;28;20734;-69
2022/05/30 11:20:42;;;;;;;1.63;1.20;;;;;;;16.79;37.40;97605.69;5072418;28;20185;-69
2022/05/30 11:23:09;;;;;;;2.30;1.10;;;;;;;17.05;38.40;97606.53;5072674;28;20196;-69
2022/05/30 11:25:54;;;;;;;1.73;1.13;;;;;;;17.30;36.27;97611.84;5073306;28;20554;-69
2022/05/30 11:28:24;;;;;;;1.83;1.03;;;;;;;17.56;34.48;97611.50;5072431;28;20594;-70
2022/05/30 11:31:09;;;;;;;1.57;1.20;;;;;;;17.12;33.95;97610.53;5072880;28;20256;-68
2022/05/30 11:34:09;;;;;;;1.37;1.20;;;;;;;17.55;32.97;97607.22;5055626;28;20193;-69
2022/05/30 11:36:38;;;;;;;2.83;1.07;;;;;;;16.53;33.77;97614.03;5057827;28;20188;-69
2022/05/30 11:39:26;;;;;;;1.80;1.20;;;;;;;17.32;33.97;97609.69;5072878;28;20305;-69
2022/05/30 11:42:23;;;;;;;2.63;1.20;;;;;;;17.32;32.83;97609.69;5073954;28;20203;-69
2022/05/30 11:44:56;;;;;;;2.80;1.40;;;;;;;16.87;33.02;97607.84;5077167;28;20212;-69
2022/05/30 11:47:25;;;;;;;2.53;1.40;;;;;;;16.89;36.06;97619.16;5059921;28;20276;-69
2022/05/30 11:50:31;;;;;;;2.77;1.30;;;;;;;17.12;36.35;97615.91;5076743;28;20212;-69
2022/05/30 11:53:13;;;;;;;1.87;1.40;;;;;;;16.47;34.44;97620.47;5076842;28;20195;-68
2022/05/30 11:55:48;;;;;;;1.60;1.23;;;;;;;16.37;33.20;97621.22;5076444;28;20184;-71
2022/05/30 11:58:23;;;;;;;1.33;1.23;;;;;;;16.92;33.74;97621.28;5076267;28;20228;-69
2022/05/30 12:00:50;;;;;;;2.30;1.33;;;;;;;17.30;33.46;97615.34;5076789;28;20188;-69
2022/05/30 12:03:44;;;;;;;1.77;1.20;;;;;;;17.79;33.09;97612.78;5076645;28;20200;-68
2022/05/30 12:06:43;;;;;;;1.20;1.10;;;;;;;17.44;34.83;97613.72;5076260;28;20209;-69
2022/05/30 12:09:19;;;;;;;3.63;1.40;;;;;;;17.14;32.85;97612.94;5075760;28;20235;-68
2022/05/30 12:11:48;;;;;;;1.37;1.20;;;;;;;17.62;33.08;97618.50;5075818;28;20232;-69
2022/05/30 12:14:52;;;;;;;2.33;1.27;;;;;;;17.72;35.03;97614.97;5076296;28;20200;-71
2022/05/30 12:24:18;;;;;;;1.33;1.07;;;;;;;17.23;34.27;97606.75;5076343;28;20179;-69
2022/05/30 12:26:47;;;;;;;1.73;0.93;;;;;;;16.47;33.34;97609.72;5075956;28;20195;-68